createdAt,value
2023-09-28T00:01:02.238Z,232.20
2023-09-28T00:03:28.821Z,238.73
2023-09-28T00:05:55.256Z,232.02
2023-09-28T00:08:21.686Z,229.02
2023-09-28T00:10:48.117Z,230.80
2023-09-28T00:13:14.629Z,231.53
2023-09-28T00:15:41.065Z,243.98
2023-09-28T00:18:07.528Z,242.18
2023-09-28T00:20:33.973Z,228.73
2023-09-28T00:23:00.631Z,228.82
2023-09-28T00:25:27.204Z,219.73
2023-09-28T00:27:54.016Z,227.13
2023-09-28T00:30:21.796Z,224.40
2023-09-28T00:32:49.223Z,222.75
2023-09-28T00:35:16.010Z,232.20
2023-09-28T00:37:42.665Z,229.63
2023-09-28T00:40:09.843Z,227.60
2023-09-28T00:42:36.266Z,227.90
2023-09-28T00:45:02.711Z,221.70
2023-09-28T00:47:29.570Z,224.68
2023-09-28T00:49:56.068Z,226.90
2023-09-28T00:52:22.749Z,233.20
2023-09-28T00:54:49.379Z,229.90
2023-09-28T00:57:16.519Z,232.85
2023-09-28T00:59:42.998Z,231.98
2023-09-28T01:02:09.466Z,223.30
2023-09-28T01:04:36.155Z,212.93
2023-09-28T01:07:02.883Z,207.95
2023-09-28T01:09:29.320Z,209.27
2023-09-28T01:11:55.743Z,208.57
2023-09-28T01:14:22.536Z,209.03
2023-09-28T01:16:49.388Z,212.52
2023-09-28T01:19:15.866Z,208.77
2023-09-28T01:21:42.393Z,207.95
2023-09-28T01:24:08.826Z,208.05
2023-09-28T01:26:35.215Z,205.80
2023-09-28T01:29:01.828Z,206.82
2023-09-28T01:31:28.408Z,209.10
2023-09-28T01:33:55.034Z,209.90
2023-09-28T01:36:21.666Z,215.73
2023-09-28T01:39:06.374Z,210.07
2023-09-28T01:41:32.878Z,213.20
2023-09-28T01:43:59.412Z,212.43
2023-09-28T01:46:25.850Z,212.32
2023-09-28T01:48:52.338Z,209.75
2023-09-28T01:51:18.734Z,210.20
2023-09-28T01:53:45.233Z,212.95
2023-09-28T01:56:11.728Z,218.93
2023-09-28T01:58:38.151Z,216.85
2023-09-28T02:01:04.534Z,217.80
2023-09-28T02:03:30.952Z,213.67
2023-09-28T02:05:57.349Z,217.20
2023-09-28T02:08:23.778Z,212.68
2023-09-28T02:10:50.340Z,210.10
2023-09-28T02:13:16.740Z,209.88
2023-09-28T02:15:43.302Z,207.70
2023-09-28T02:18:09.752Z,204.35
2023-09-28T02:20:36.143Z,216.90
2023-09-28T02:23:02.600Z,210.63
2023-09-28T02:25:29.152Z,225.52
2023-09-28T02:27:55.571Z,241.17
2023-09-28T02:30:23.474Z,233.68
2023-09-28T02:32:51.774Z,229.35
2023-09-28T02:35:18.601Z,239.85
2023-09-28T02:37:45.778Z,249.48
2023-09-28T02:40:13.379Z,238.17
2023-09-28T02:42:40.390Z,235.52
2023-09-28T02:45:07.211Z,229.60
2023-09-28T02:47:33.729Z,216.73
2023-09-28T02:50:00.250Z,245.00
2023-09-28T02:52:26.740Z,241.77
2023-09-28T02:54:53.158Z,237.73
2023-09-28T02:57:19.564Z,245.02
2023-09-28T02:59:45.958Z,239.85
2023-09-28T03:02:12.447Z,232.13
2023-09-28T03:04:38.835Z,235.97
2023-09-28T03:07:05.266Z,241.23
2023-09-28T03:09:33.423Z,245.18
2023-09-28T03:11:59.957Z,250.70
2023-09-28T03:14:26.347Z,237.57
2023-09-28T03:16:52.828Z,233.43
2023-09-28T03:19:19.273Z,211.25
2023-09-28T03:21:45.677Z,205.52
2023-09-28T03:24:12.091Z,204.15
2023-09-28T03:26:38.465Z,204.25
2023-09-28T03:29:05.631Z,209.13
2023-09-28T03:31:34.084Z,211.95
2023-09-28T03:34:01.874Z,219.38
2023-09-28T03:36:28.262Z,220.02
2023-09-28T03:38:54.694Z,213.50
2023-09-28T03:41:21.134Z,221.77
2023-09-28T03:43:47.550Z,215.45
2023-09-28T03:46:14.074Z,222.15
2023-09-28T03:48:40.471Z,252.77
2023-09-28T03:51:06.900Z,246.98
2023-09-28T03:53:39.482Z,242.93
2023-09-28T03:56:05.872Z,246.63
2023-09-28T03:58:32.319Z,237.52
2023-09-28T04:00:58.774Z,272.00
2023-09-28T04:03:25.289Z,281.60
2023-09-28T04:05:51.706Z,299.30
2023-09-28T04:08:18.192Z,293.15
2023-09-28T04:10:44.668Z,291.80
2023-09-28T04:13:11.079Z,335.20
2023-09-28T04:15:37.633Z,348.58
2023-09-28T04:18:04.253Z,341.70
2023-09-28T04:20:30.755Z,273.27
2023-09-28T04:22:57.211Z,279.98
2023-09-28T04:25:23.589Z,292.05
2023-09-28T04:27:49.959Z,269.98
2023-09-28T04:30:16.500Z,264.47
2023-09-28T04:32:43.264Z,309.38
2023-09-28T04:35:09.891Z,289.83
2023-09-28T04:37:36.429Z,268.80
2023-09-28T04:40:02.857Z,252.48
2023-09-28T04:42:29.277Z,278.87
2023-09-28T04:44:56.899Z,271.17
2023-09-28T04:47:23.578Z,247.82
2023-09-28T04:49:50.128Z,236.32
2023-09-28T04:52:16.658Z,255.18
2023-09-28T04:54:43.070Z,276.67
2023-09-28T04:57:09.601Z,228.23
2023-09-28T04:59:36.871Z,220.13
2023-09-28T05:02:03.336Z,226.15
2023-09-28T05:04:29.746Z,243.02
2023-09-28T05:06:56.217Z,195.97
2023-09-28T05:09:22.606Z,188.90
2023-09-28T05:11:48.995Z,187.27
2023-09-28T05:14:15.482Z,190.52
2023-09-28T05:16:41.894Z,191.85
2023-09-28T05:19:08.282Z,183.10
2023-09-28T05:21:34.749Z,192.75
2023-09-28T05:24:01.161Z,199.90
2023-09-28T05:26:27.561Z,176.50
2023-09-28T05:28:54.029Z,175.10
2023-09-28T05:31:20.488Z,195.67
2023-09-28T05:33:47.297Z,216.60
2023-09-28T05:36:14.159Z,195.55
2023-09-28T05:38:40.776Z,231.35
2023-09-28T05:41:07.860Z,189.18
2023-09-28T05:43:34.382Z,145.63
2023-09-28T05:46:00.822Z,158.38
2023-09-28T05:48:27.251Z,138.45
2023-09-28T05:50:54.394Z,128.43
2023-09-28T05:53:20.805Z,108.13
2023-09-28T05:55:47.316Z,93.17
2023-09-28T05:58:13.734Z,84.30
2023-09-28T06:00:40.120Z,103.88
2023-09-28T06:03:06.533Z,134.88
2023-09-28T06:05:33.173Z,187.93
2023-09-28T06:07:59.566Z,130.53
2023-09-28T06:10:25.999Z,126.47
2023-09-28T06:12:52.424Z,125.47
2023-09-28T06:15:18.808Z,148.73
2023-09-28T06:17:45.259Z,170.25
2023-09-28T06:20:11.897Z,156.60
2023-09-28T06:22:38.334Z,151.55
2023-09-28T06:25:04.915Z,162.23
2023-09-28T06:27:31.376Z,137.35
2023-09-28T06:29:58.049Z,137.07
2023-09-28T06:32:24.758Z,121.87
2023-09-28T06:34:51.371Z,120.63
2023-09-28T06:37:18.036Z,101.03
2023-09-28T06:39:44.432Z,96.90
2023-09-28T06:42:24.168Z,81.72
2023-09-28T06:44:57.351Z,80.33
2023-09-28T06:47:29.558Z,76.70
2023-09-28T06:50:01.907Z,52.45
2023-09-28T06:52:28.852Z,53.97
2023-09-28T06:54:55.367Z,53.08
2023-09-28T06:57:24.732Z,63.27
2023-09-28T06:59:51.711Z,54.47
2023-09-28T07:02:18.216Z,52.40
2023-09-28T07:04:44.669Z,51.72
2023-09-28T07:07:11.180Z,45.15
2023-09-28T07:09:51.090Z,44.57
2023-09-28T07:12:23.505Z,47.38
2023-09-28T07:14:49.959Z,45.95
2023-09-28T07:17:16.494Z,42.67
2023-09-28T07:19:43.041Z,39.67
2023-09-28T07:22:09.427Z,40.73
2023-09-28T07:24:35.853Z,32.13
2023-09-28T07:27:02.362Z,34.22
2023-09-28T07:29:28.825Z,34.45
2023-09-28T07:31:55.331Z,43.20
2023-09-28T07:34:21.949Z,38.10
2023-09-28T07:36:48.401Z,32.03
2023-09-28T07:39:14.794Z,36.45
2023-09-28T07:41:41.429Z,33.85
2023-09-28T07:44:07.890Z,38.17
2023-09-28T07:46:34.343Z,37.87
2023-09-28T07:49:00.789Z,35.10
2023-09-28T07:51:27.180Z,41.42
2023-09-28T07:53:53.762Z,37.88
2023-09-28T07:56:20.517Z,41.53
2023-09-28T07:58:46.964Z,39.77
2023-09-28T08:01:13.478Z,38.35
2023-09-28T08:03:39.954Z,34.60
2023-09-28T08:06:06.382Z,35.72
2023-09-28T08:08:32.875Z,40.83
2023-09-28T08:10:59.367Z,34.73
2023-09-28T08:13:25.798Z,28.83
2023-09-28T08:15:52.496Z,30.77
2023-09-28T08:18:20.132Z,31.70
2023-09-28T08:20:59.584Z,30.88
2023-09-28T08:23:34.250Z,33.83
2023-09-28T08:26:00.805Z,39.15
2023-09-28T08:28:27.223Z,37.45
2023-09-28T08:30:53.684Z,36.08
2023-09-28T08:33:20.392Z,32.05
2023-09-28T08:35:49.992Z,35.13
2023-09-28T08:38:16.475Z,38.65
2023-09-28T08:40:43.403Z,35.20
2023-09-28T08:43:12.548Z,33.95
2023-09-28T08:45:39.932Z,38.58
2023-09-28T08:48:09.562Z,36.83
2023-09-28T08:50:36.748Z,34.55
2023-09-28T08:53:04.531Z,37.55
2023-09-28T08:55:32.085Z,36.08
2023-09-28T08:57:58.901Z,42.35
2023-09-28T09:00:26.509Z,49.50
2023-09-28T09:02:53.598Z,59.08
2023-09-28T09:05:20.594Z,57.75
2023-09-28T09:07:48.186Z,43.40
2023-09-28T09:10:18.036Z,46.05
2023-09-28T09:12:44.464Z,36.57
2023-09-28T09:15:11.091Z,38.03
2023-09-28T09:17:37.839Z,50.30
2023-09-28T09:20:04.574Z,32.15
2023-09-28T09:22:41.400Z,48.53
2023-09-28T09:25:15.739Z,70.97
2023-09-28T09:27:42.212Z,437.92
2023-09-28T09:30:09.232Z,259.35
2023-09-28T09:32:36.999Z,312.48
2023-09-28T09:35:05.144Z,367.20
2023-09-28T09:37:32.832Z,303.77
2023-09-28T09:40:15.089Z,303.90
2023-09-28T09:42:41.490Z,323.23
2023-09-28T09:45:08.034Z,290.23
2023-09-28T09:47:35.489Z,208.55
2023-09-28T09:50:02.442Z,234.37
2023-09-28T09:52:30.147Z,255.85
2023-09-28T09:54:56.897Z,381.83
2023-09-28T09:57:24.708Z,345.10
2023-09-28T09:59:52.179Z,229.63
2023-09-28T10:02:25.440Z,263.20
2023-09-28T10:04:55.451Z,555.55
2023-09-28T10:07:34.157Z,464.98
2023-09-28T10:10:12.772Z,519.78
2023-09-28T10:12:39.650Z,358.92
2023-09-28T10:15:06.470Z,461.10
2023-09-28T10:17:33.284Z,515.70
2023-09-28T10:20:00.492Z,421.95
2023-09-28T10:22:26.976Z,412.25
2023-09-28T10:24:53.482Z,385.42
2023-09-28T10:27:20.123Z,464.43
2023-09-28T10:29:46.554Z,415.98
2023-09-28T10:32:31.553Z,340.15
2023-09-28T10:35:12.473Z,331.02
2023-09-28T10:37:38.984Z,302.58
2023-09-28T10:40:05.631Z,280.53
2023-09-28T10:42:33.073Z,289.88
2023-09-28T10:44:59.551Z,281.25
2023-09-28T10:47:26.034Z,370.88
2023-09-28T10:49:59.396Z,440.20
2023-09-28T10:52:25.854Z,387.80
2023-09-28T10:54:52.271Z,433.77
2023-09-28T10:57:18.721Z,383.73
2023-09-28T10:59:45.160Z,347.05
2023-09-28T11:02:11.625Z,343.65
2023-09-28T11:04:50.066Z,326.73
2023-09-28T11:07:17.973Z,357.77
2023-09-28T11:09:44.375Z,348.35
2023-09-28T11:12:10.842Z,322.00
2023-09-28T11:14:41.570Z,318.98
2023-09-28T11:17:08.631Z,300.30
2023-09-28T11:19:35.582Z,295.13
2023-09-28T11:22:02.106Z,273.15
2023-09-28T11:24:28.505Z,247.95
2023-09-28T11:26:54.972Z,335.52
2023-09-28T11:29:21.477Z,318.17
2023-09-28T11:31:51.351Z,306.05
2023-09-28T11:34:30.392Z,298.75
2023-09-28T11:36:57.428Z,307.50
2023-09-28T11:39:26.788Z,310.40
2023-09-28T11:42:00.668Z,310.20
2023-09-28T11:44:27.910Z,282.70
2023-09-28T11:46:54.735Z,312.80
2023-09-28T11:49:21.857Z,325.30
2023-09-28T11:51:48.265Z,285.83
2023-09-28T11:54:16.679Z,305.47
2023-09-28T11:56:45.409Z,330.42
2023-09-28T11:59:14.826Z,263.42
2023-09-28T12:01:41.412Z,237.95
2023-09-28T12:04:08.108Z,211.95
2023-09-28T12:06:35.079Z,433.20
2023-09-28T12:09:13.868Z,451.50
2023-09-28T12:11:49.590Z,459.48
2023-09-28T12:14:16.182Z,427.67
2023-09-28T12:16:44.729Z,442.48
2023-09-28T12:19:12.742Z,396.17
2023-09-28T12:21:39.163Z,378.00
2023-09-28T12:24:05.774Z,360.08
2023-09-28T12:26:32.216Z,365.58
2023-09-28T12:28:58.718Z,375.58
2023-09-28T12:31:25.174Z,356.77
2023-09-28T12:33:51.754Z,357.60
2023-09-28T12:36:18.245Z,380.60
2023-09-28T12:38:44.758Z,363.15
2023-09-28T12:41:11.215Z,365.17
2023-09-28T12:43:44.566Z,374.73
2023-09-28T12:46:11.070Z,401.17
2023-09-28T12:48:37.501Z,395.05
2023-09-28T12:51:04.004Z,427.95
2023-09-28T12:53:31.228Z,470.83
2023-09-28T12:55:57.731Z,462.67
2023-09-28T12:58:25.467Z,517.00
2023-09-28T13:00:54.521Z,515.55
2023-09-28T13:03:22.223Z,457.00
2023-09-28T13:05:48.717Z,469.60
2023-09-28T13:08:15.312Z,459.60
2023-09-28T13:10:41.776Z,454.65
2023-09-28T13:13:08.180Z,452.08
2023-09-28T13:15:35.301Z,481.55
2023-09-28T13:18:02.217Z,430.15
2023-09-28T13:20:28.805Z,436.17
2023-09-28T13:22:55.588Z,390.02
2023-09-28T13:25:25.566Z,429.10
2023-09-28T13:27:52.727Z,399.83
2023-09-28T13:30:19.955Z,396.65
2023-09-28T13:32:47.534Z,389.07
2023-09-28T13:35:14.064Z,391.95
2023-09-28T13:37:41.268Z,381.10
2023-09-28T13:40:07.817Z,381.33
2023-09-28T13:42:34.238Z,390.33
2023-09-28T13:45:01.482Z,396.97
2023-09-28T13:47:28.491Z,403.05
2023-09-28T13:49:54.935Z,423.73
2023-09-28T13:52:21.393Z,426.98
2023-09-28T13:54:47.832Z,369.92
2023-09-28T13:57:14.235Z,357.37
2023-09-28T13:59:40.746Z,368.23
2023-09-28T14:02:07.149Z,424.00
2023-09-28T14:04:33.549Z,394.52
2023-09-28T14:07:00.045Z,354.30
2023-09-28T14:09:26.527Z,451.33
2023-09-28T14:11:52.947Z,450.85
2023-09-28T14:14:19.485Z,422.35
2023-09-28T14:16:46.002Z,432.80
2023-09-28T14:19:12.627Z,433.13
2023-09-28T14:21:39.429Z,421.00
2023-09-28T14:24:06.203Z,411.25
2023-09-28T14:26:36.642Z,460.15
2023-09-28T14:29:03.692Z,507.45
2023-09-28T14:31:30.631Z,472.67
2023-09-28T14:33:57.351Z,461.30
2023-09-28T14:36:23.907Z,449.92
2023-09-28T14:38:51.008Z,448.83
2023-09-28T14:41:21.074Z,436.05
2023-09-28T14:43:47.997Z,429.65
2023-09-28T14:46:18.078Z,438.10
2023-09-28T14:48:44.580Z,416.55
2023-09-28T14:51:11.174Z,430.38
2023-09-28T14:53:38.200Z,490.33
2023-09-28T14:56:04.899Z,489.30
2023-09-28T14:58:32.111Z,405.50
2023-09-28T15:00:58.559Z,400.75
2023-09-28T15:03:25.101Z,413.20
2023-09-28T15:05:51.587Z,436.60
2023-09-28T15:08:18.397Z,439.98
2023-09-28T15:10:44.921Z,471.03
2023-09-28T15:13:11.598Z,449.98
2023-09-28T15:15:38.716Z,439.08
2023-09-28T15:18:05.385Z,411.55
2023-09-28T15:20:35.693Z,360.48
2023-09-28T15:23:02.801Z,372.13
2023-09-28T15:25:29.307Z,457.33
2023-09-28T15:27:55.997Z,451.45
2023-09-28T15:30:22.481Z,468.20
2023-09-28T15:32:49.699Z,475.33
2023-09-28T15:35:16.444Z,516.40
2023-09-28T15:37:42.937Z,484.48
2023-09-28T15:40:09.611Z,484.15
2023-09-28T15:42:36.595Z,458.23
2023-09-28T15:45:09.884Z,524.55
2023-09-28T15:47:43.168Z,505.33
2023-09-28T15:50:10.962Z,515.53
2023-09-28T15:52:37.412Z,480.77
2023-09-28T15:55:04.026Z,491.90
2023-09-28T15:57:31.151Z,480.80
2023-09-28T15:59:57.825Z,438.90
2023-09-28T16:02:24.374Z,417.35
2023-09-28T16:04:50.809Z,396.38
2023-09-28T16:07:17.211Z,434.08
2023-09-28T16:09:43.631Z,414.42
2023-09-28T16:12:10.051Z,361.70
2023-09-28T16:14:36.551Z,385.45
2023-09-28T16:17:03.024Z,398.33
2023-09-28T16:19:29.394Z,418.08
2023-09-28T16:21:55.831Z,411.92
2023-09-28T16:24:22.258Z,361.27
2023-09-28T16:26:48.678Z,389.27
2023-09-28T16:29:15.150Z,422.75
2023-09-28T16:31:41.571Z,425.05
2023-09-28T16:34:08.037Z,390.73
2023-09-28T16:36:34.442Z,410.03
2023-09-28T16:39:00.949Z,389.80
2023-09-28T16:41:27.456Z,416.58
2023-09-28T16:43:53.968Z,433.70
2023-09-28T16:46:20.441Z,411.00
2023-09-28T16:48:46.897Z,394.93
2023-09-28T16:51:13.320Z,366.73
2023-09-28T16:53:39.758Z,360.85
2023-09-28T16:56:06.220Z,379.35
2023-09-28T16:58:32.596Z,405.50
2023-09-28T17:00:58.988Z,486.77
2023-09-28T17:03:25.454Z,461.75
2023-09-28T17:05:51.993Z,457.13
2023-09-28T17:08:18.584Z,430.48
2023-09-28T17:10:45.013Z,459.65
2023-09-28T17:13:11.410Z,462.97
2023-09-28T17:15:37.831Z,423.88
2023-09-28T17:18:17.989Z,398.35
2023-09-28T17:20:46.741Z,428.17
2023-09-28T17:23:13.337Z,448.77
2023-09-28T17:25:39.786Z,457.43
2023-09-28T17:28:06.432Z,453.20
2023-09-28T17:30:32.842Z,368.73
2023-09-28T17:32:59.393Z,330.02
2023-09-28T17:35:25.974Z,331.77
2023-09-28T17:37:52.401Z,331.60
2023-09-28T17:40:18.806Z,333.45
2023-09-28T17:42:45.596Z,329.05
2023-09-28T17:45:12.053Z,333.52
2023-09-28T17:47:38.523Z,328.17
2023-09-28T17:50:05.471Z,325.37
2023-09-28T17:52:31.924Z,333.00
2023-09-28T17:54:58.327Z,334.17
2023-09-28T17:57:24.860Z,325.20
2023-09-28T17:59:51.303Z,336.65
2023-09-28T18:02:17.699Z,341.10
2023-09-28T18:04:44.896Z,338.60
2023-09-28T18:07:11.320Z,339.02
2023-09-28T18:09:37.966Z,350.73
2023-09-28T18:12:04.632Z,363.58
2023-09-28T18:14:31.102Z,368.27
2023-09-28T18:16:57.496Z,379.50
2023-09-28T18:19:24.046Z,378.50
2023-09-28T18:21:50.448Z,395.45
2023-09-28T18:24:16.826Z,441.50
2023-09-28T18:26:43.338Z,432.93
2023-09-28T18:29:09.847Z,460.55
2023-09-28T18:31:36.335Z,425.85
2023-09-28T18:34:03.017Z,420.42
2023-09-28T18:36:29.643Z,432.90
2023-09-28T18:39:11.865Z,432.07
2023-09-28T18:41:41.096Z,416.42
2023-09-28T18:44:07.560Z,432.95
2023-09-28T18:46:34.156Z,423.35
2023-09-28T18:49:00.727Z,419.00
2023-09-28T18:51:27.175Z,412.17
2023-09-28T18:53:53.845Z,434.75
2023-09-28T18:56:20.573Z,440.05
2023-09-28T18:58:46.984Z,437.30
2023-09-28T19:01:13.693Z,444.83
2023-09-28T19:03:40.157Z,438.67
2023-09-28T19:06:16.959Z,436.60
2023-09-28T19:08:43.688Z,442.98
2023-09-28T19:11:10.156Z,466.65
2023-09-28T19:13:36.573Z,434.65
2023-09-28T19:16:06.311Z,418.67
2023-09-28T19:18:32.886Z,424.23
2023-09-28T19:20:59.749Z,426.70
2023-09-28T19:23:26.594Z,427.23
2023-09-28T19:25:52.993Z,435.65
2023-09-28T19:28:21.241Z,466.83
2023-09-28T19:30:48.800Z,462.58
2023-09-28T19:33:15.253Z,461.83
2023-09-28T19:35:41.758Z,411.38
2023-09-28T19:38:08.282Z,402.52
2023-09-28T19:40:35.022Z,441.20
2023-09-28T19:43:01.440Z,459.90
2023-09-28T19:45:27.964Z,449.67
2023-09-28T19:47:54.462Z,448.92
2023-09-28T19:50:20.961Z,422.45
2023-09-28T19:52:47.422Z,402.07
2023-09-28T19:55:13.804Z,400.33
2023-09-28T19:57:40.257Z,399.42
2023-09-28T20:00:07.337Z,400.73
2023-09-28T20:02:33.912Z,397.38
2023-09-28T20:05:00.391Z,404.53
2023-09-28T20:07:26.795Z,420.50
2023-09-28T20:09:53.199Z,422.55
2023-09-28T20:12:19.596Z,423.40
2023-09-28T20:14:46.192Z,439.08
2023-09-28T20:17:12.610Z,442.27
2023-09-28T20:19:39.003Z,431.77
2023-09-28T20:22:06.238Z,440.95
2023-09-28T20:24:32.642Z,430.70
2023-09-28T20:26:59.034Z,415.20
2023-09-28T20:29:25.512Z,404.10
2023-09-28T20:31:52.560Z,373.63
2023-09-28T20:34:19.191Z,402.88
2023-09-28T20:36:45.681Z,403.83
2023-09-28T20:39:12.066Z,407.48
2023-09-28T20:41:38.503Z,411.07
2023-09-28T20:44:05.655Z,419.85
2023-09-28T20:46:32.270Z,385.80
2023-09-28T20:48:58.774Z,396.80
2023-09-28T20:51:25.214Z,387.42
2023-09-28T20:53:51.618Z,368.93
2023-09-28T20:56:18.100Z,382.50
2023-09-28T20:58:45.354Z,477.10
2023-09-28T21:01:12.244Z,417.70
2023-09-28T21:03:39.166Z,426.75
2023-09-28T21:06:10.164Z,407.20
2023-09-28T21:08:36.599Z,393.48
2023-09-28T21:11:03.741Z,395.05
2023-09-28T21:13:31.117Z,402.20
2023-09-28T21:15:57.731Z,418.20
2023-09-28T21:18:24.334Z,457.73
2023-09-28T21:20:51.214Z,464.50
2023-09-28T21:23:17.939Z,415.05
2023-09-28T21:25:44.364Z,433.33
2023-09-28T21:28:11.389Z,390.52
2023-09-28T21:30:38.536Z,441.47
2023-09-28T21:33:05.102Z,470.23
2023-09-28T21:35:31.748Z,456.33
2023-09-28T21:37:58.164Z,432.77
2023-09-28T21:40:24.555Z,378.80
2023-09-28T21:42:50.980Z,408.50
2023-09-28T21:45:17.392Z,431.10
2023-09-28T21:47:43.954Z,440.90
2023-09-28T21:50:10.709Z,414.15
2023-09-28T21:52:37.086Z,396.02
2023-09-28T21:55:03.590Z,403.07
2023-09-28T21:57:30.083Z,409.15
2023-09-28T21:59:56.514Z,421.05
2023-09-28T22:02:23.074Z,390.98
2023-09-28T22:04:49.724Z,398.40
2023-09-28T22:07:16.346Z,452.67
2023-09-28T22:09:42.823Z,450.17
2023-09-28T22:12:09.347Z,436.73
2023-09-28T22:14:36.482Z,419.50
2023-09-28T22:17:03.148Z,433.58
2023-09-28T22:19:29.626Z,395.57
2023-09-28T22:21:56.116Z,376.02
2023-09-28T22:24:22.628Z,366.58
2023-09-28T22:26:49.189Z,407.23
2023-09-28T22:29:15.742Z,388.88
2023-09-28T22:31:42.368Z,405.17
2023-09-28T22:34:08.847Z,464.13
2023-09-28T22:36:35.405Z,476.20
2023-09-28T22:39:01.943Z,517.78
2023-09-28T22:41:28.532Z,463.30
2023-09-28T22:43:55.086Z,545.27
2023-09-28T22:46:21.596Z,459.73
2023-09-28T22:48:48.092Z,377.00
2023-09-28T22:51:14.606Z,390.77
2023-09-28T22:53:41.132Z,498.00
2023-09-28T22:56:07.655Z,527.17
2023-09-28T22:58:34.202Z,504.05
2023-09-28T23:01:00.702Z,289.55
2023-09-28T23:03:27.292Z,284.20
2023-09-28T23:05:53.931Z,358.50
2023-09-28T23:08:20.514Z,490.23
2023-09-28T23:10:47.000Z,344.40
2023-09-28T23:13:13.665Z,274.48
2023-09-28T23:15:40.145Z,282.00
2023-09-28T23:18:06.705Z,262.15
2023-09-28T23:20:33.367Z,274.40
2023-09-28T23:22:59.844Z,276.38
2023-09-28T23:25:26.341Z,276.50
2023-09-28T23:27:52.854Z,268.65
2023-09-28T23:30:20.423Z,267.05
2023-09-28T23:32:51.486Z,269.33
2023-09-28T23:35:18.877Z,271.95
2023-09-28T23:37:45.895Z,272.15
2023-09-28T23:40:12.804Z,266.08
2023-09-28T23:42:39.420Z,261.63
2023-09-28T23:45:06.211Z,298.57
2023-09-28T23:47:32.789Z,301.73
2023-09-28T23:49:59.447Z,306.50
2023-09-28T23:52:25.930Z,310.60
2023-09-28T23:54:52.406Z,311.17
2023-09-28T23:57:18.993Z,289.30
2023-09-28T23:59:45.476Z,307.13
